Terminal Aerodrome Forecast
Issued by NWS Sioux Falls, SD

Home | Current Version | Previous Version | Graphics & Text | Print | Product List | Glossary On
Versions: 1 2 3 4 5 6 7 8 9 10 11 12 13 14 15 16 17 18 19 20 21 22
728
FTUS43 KFSD 131120
TAFFSD
TAF
KFSD 131120Z 1312/1412 36003KT P6SM SKC
     FM131800 15006KT P6SM SKC
     FM140600 15009KT P6SM SCT025 OVC040
     FM140800 16008KT P6SM VCSH BKN025 OVC040
     FM141130 17007KT P6SM SCT025 BKN040=

USA.gov is the U.S. government's official web portal to all federal, state and local government web resources and services.